Time;durP1;ratioP1;P1;durP2;ratioP2;P2;SDS_P1;SDS_P2;PMS_P1;PMS_P2;Temp;Humidity;BMP_temperature;BMP_pressure;BME280_temperature;BME280_humidity;BME280_pressure;Samples;Min_cycle;Max_cycle;Signal;HPM_P1;HPM_P2
2021/03/11 00:00:36;;;;;;;24.63;21.33;;;;;;;8.28;49.32;100815.53;4956164;28;20498;-69
2021/03/11 00:03:11;;;;;;;23.40;20.67;;;;;;;8.50;48.44;100814.88;4956452;28;20047;-69
2021/03/11 00:05:39;;;;;;;28.02;22.05;;;;;;;8.37;49.02;100825.69;4955665;28;20139;-69
2021/03/11 00:08:07;;;;;;;26.58;22.08;;;;;;;8.14;50.64;100826.34;4956600;28;20435;-69
2021/03/11 00:10:35;;;;;;;34.63;22.35;;;;;;;8.08;50.56;100830.88;4955335;28;20039;-68
2021/03/11 00:13:01;;;;;;;37.65;24.88;;;;;;;8.01;50.56;100826.78;4955841;28;20054;-68
2021/03/11 00:15:28;;;;;;;31.67;24.13;;;;;;;7.98;51.18;100824.25;4955958;28;20039;-68
2021/03/11 00:17:55;;;;;;;34.50;26.63;;;;;;;8.11;50.59;100821.25;4956078;28;20041;-68
2021/03/11 00:20:23;;;;;;;34.28;27.73;;;;;;;8.02;51.23;100824.13;4956112;28;20105;-68
2021/03/11 00:22:51;;;;;;;43.63;27.75;;;;;;;7.99;51.42;100825.97;4955387;28;20047;-68
2021/03/11 00:25:20;;;;;;;34.03;25.45;;;;;;;7.87;51.98;100830.63;4956010;28;20130;-69
2021/03/11 00:27:46;;;;;;;35.55;24.92;;;;;;;7.97;51.34;100822.56;4955415;28;20126;-69
2021/03/11 00:30:14;;;;;;;25.33;19.42;;;;;;;7.97;50.90;100819.97;4956172;28;20055;-68
2021/03/11 00:32:41;;;;;;;25.77;19.70;;;;;;;8.03;50.79;100822.38;4955678;28;20126;-69
2021/03/11 00:35:11;;;;;;;24.98;16.60;;;;;;;8.08;50.20;100823.09;4955478;28;20054;-68
2021/03/11 00:37:38;;;;;;;22.85;17.17;;;;;;;8.13;50.31;100819.44;4955843;28;20051;-68
2021/03/11 00:40:08;;;;;;;21.60;16.60;;;;;;;8.17;49.49;100825.41;4955894;28;20047;-68
2021/03/11 00:42:34;;;;;;;22.08;16.45;;;;;;;8.13;49.83;100831.59;4949846;28;20131;-67
2021/03/11 00:45:01;;;;;;;20.13;15.35;;;;;;;8.14;49.73;100822.91;4954860;28;20512;-66
2021/03/11 00:47:27;;;;;;;23.35;16.40;;;;;;;8.19;49.91;100823.59;4955904;28;20375;-67
2021/03/11 00:49:54;;;;;;;18.42;14.55;;;;;;;8.17;49.63;100817.63;4954554;28;20051;-66
2021/03/11 00:52:21;;;;;;;22.70;14.50;;;;;;;8.20;49.36;100816.66;4949258;29;20048;-67
2021/03/11 00:54:47;;;;;;;18.13;14.35;;;;;;;8.14;49.89;100810.75;4948825;29;20102;-67
2021/03/11 00:57:13;;;;;;;18.23;13.48;;;;;;;8.16;49.55;100815.94;4955508;28;20050;-67
2021/03/11 00:59:41;;;;;;;20.55;13.75;;;;;;;8.25;49.19;100813.03;4947343;28;20122;-67
2021/03/11 01:02:07;;;;;;;20.38;13.32;;;;;;;8.32;48.72;100816.31;4946954;28;20043;-67
2021/03/11 01:04:36;;;;;;;19.85;14.35;;;;;;;8.29;48.79;100822.44;4943441;28;20134;-66
2021/03/11 01:07:03;;;;;;;17.45;13.20;;;;;;;8.28;48.70;100822.47;4941640;28;20045;-67
2021/03/11 01:09:30;;;;;;;15.38;13.32;;;;;;;8.20;49.47;100814.91;4946775;29;20047;-66
2021/03/11 01:11:57;;;;;;;15.77;14.10;;;;;;;8.20;49.63;100821.84;4947306;28;20146;-67
2021/03/11 01:14:24;;;;;;;19.77;16.02;;;;;;;8.07;50.48;100811.84;4948339;28;20409;-67
2021/03/11 01:17:27;;;;;;;20.90;14.40;;;;;;;8.02;49.89;100812.91;4946846;28;20078;-69
2021/03/11 01:19:55;;;;;;;17.33;15.07;;;;;;;8.17;50.24;100811.59;4947021;28;20132;-68
2021/03/11 01:22:21;;;;;;;20.92;15.13;;;;;;;8.15;49.85;100809.03;4946057;28;20134;-69
2021/03/11 01:24:48;;;;;;;17.02;13.07;;;;;;;8.05;50.51;100812.81;4947170;28;20040;-70
2021/03/11 01:27:14;;;;;;;17.08;13.57;;;;;;;7.99;50.73;100815.56;4946830;28;20051;-68
2021/03/11 01:29:41;;;;;;;17.92;13.35;;;;;;;8.06;50.01;100815.34;4945877;28;20035;-68
2021/03/11 01:32:07;;;;;;;16.45;13.13;;;;;;;7.84;51.20;100809.13;4946740;28;20118;-70
2021/03/11 01:34:36;;;;;;;21.95;14.95;;;;;;;7.92;50.92;100806.28;4946684;29;20117;-68
2021/03/11 01:37:02;;;;;;;17.33;14.45;;;;;;;8.23;49.72;100795.81;4947172;28;20047;-69
2021/03/11 01:39:28;;;;;;;17.05;14.60;;;;;;;7.94;50.91;100799.31;4948191;28;20042;-68
2021/03/11 01:41:55;;;;;;;17.02;12.57;;;;;;;7.72;51.78;100789.53;4946949;28;20146;-68
2021/03/11 01:44:21;;;;;;;18.38;13.32;;;;;;;7.58;52.70;100796.91;4946494;28;20126;-68
2021/03/11 01:46:48;;;;;;;15.35;12.85;;;;;;;7.54;53.01;100792.69;4946753;28;20486;-68
2021/03/11 01:49:14;;;;;;;16.17;13.57;;;;;;;7.68;52.05;100792.31;4946776;28;20135;-68
2021/03/11 01:51:42;;;;;;;16.48;12.85;;;;;;;8.01;51.06;100795.63;4946920;28;20514;-68
2021/03/11 01:54:10;;;;;;;15.63;13.05;;;;;;;7.75;52.13;100794.66;4946270;28;20394;-68
2021/03/11 01:56:36;;;;;;;18.23;13.13;;;;;;;7.61;52.40;100795.03;4948733;28;20043;-70
2021/03/11 01:59:03;;;;;;;18.63;13.27;;;;;;;7.63;52.19;100794.19;4946967;28;20080;-70
2021/03/11 02:01:29;;;;;;;16.40;13.15;;;;;;;7.60;52.18;100795.94;4949027;28;20134;-70
2021/03/11 02:03:56;;;;;;;16.10;13.48;;;;;;;7.67;51.44;100790.56;4952934;28;20043;-71
2021/03/11 02:06:22;;;;;;;16.27;13.30;;;;;;;7.72;51.99;100783.50;4951373;29;20548;-71
2021/03/11 02:08:49;;;;;;;17.67;12.93;;;;;;;7.68;51.93;100774.13;4965245;28;20126;-70
2021/03/11 02:11:22;;;;;;;15.77;13.55;;;;;;;7.69;51.49;100773.25;4952677;28;20035;-70
2021/03/11 02:14:16;;;;;;;16.75;13.00;;;;;;;7.59;52.02;100776.09;4952966;28;20126;-70
2021/03/11 02:16:49;;;;;;;17.92;13.95;;;;;;;7.61;52.27;100769.09;4959065;28;20039;-69
2021/03/11 02:19:52;;;;;;;16.15;13.20;;;;;;;7.61;51.18;100770.84;4954432;29;20043;-70
2021/03/11 02:22:18;;;;;;;17.13;12.50;;;;;;;7.62;51.96;100769.97;4952439;29;20138;-70
2021/03/11 02:25:12;;;;;;;20.15;13.75;;;;;;;7.80;51.00;100761.63;4953657;29;20090;-70
2021/03/11 02:28:10;;;;;;;16.73;11.27;;;;;;;7.84;51.00;100763.25;4954243;29;20090;-72
2021/03/11 02:30:37;;;;;;;25.75;12.43;;;;;;;7.82;51.31;100752.03;4952564;28;20074;-72
2021/03/11 02:33:07;;;;;;;23.40;13.57;;;;;;;7.77;50.86;100755.66;4952149;28;20062;-71
2021/03/11 02:35:34;;;;;;;19.30;12.30;;;;;;;7.82;50.57;100753.78;4951976;28;20082;-71
2021/03/11 02:38:02;;;;;;;20.38;13.35;;;;;;;7.94;50.04;100747.41;4951124;28;20081;-71
2021/03/11 02:40:30;;;;;;;15.68;10.73;;;;;;;7.90;50.51;100745.78;4952759;28;20071;-71
2021/03/11 02:42:59;;;;;;;15.52;11.95;;;;;;;7.94;50.56;100748.25;4952535;28;20126;-71
2021/03/11 02:45:29;;;;;;;15.55;11.82;;;;;;;7.88;50.58;100743.22;4952541;28;20524;-69
2021/03/11 02:47:59;;;;;;;19.55;14.02;;;;;;;7.98;50.75;100743.78;4952591;29;20548;-69
2021/03/11 02:50:27;;;;;;;13.05;10.93;;;;;;;7.82;51.10;100739.06;4952376;28;20064;-69
2021/03/11 02:52:54;;;;;;;17.08;12.95;;;;;;;7.74;51.61;100746.25;4965857;28;20119;-69
2021/03/11 02:55:22;;;;;;;18.23;13.77;;;;;;;7.77;50.99;100740.94;4952029;28;21347;-67
2021/03/11 02:57:53;;;;;;;17.85;13.13;;;;;;;7.70;51.17;100746.38;4952500;28;20991;-67
2021/03/11 03:00:22;;;;;;;17.92;13.68;;;;;;;7.73;51.80;100749.75;4952283;28;21256;-67
2021/03/11 03:02:52;;;;;;;16.60;13.10;;;;;;;8.01;50.62;100754.09;4952451;28;20397;-67
2021/03/11 03:05:21;;;;;;;18.98;13.15;;;;;;;7.91;50.91;100753.50;4951939;28;20098;-68
2021/03/11 03:07:50;;;;;;;16.17;12.77;;;;;;;7.85;50.46;100746.78;4967348;28;20047;-67
2021/03/11 03:10:20;;;;;;;16.70;12.10;;;;;;;7.58;51.47;100755.38;4952831;28;20409;-69
2021/03/11 03:12:52;;;;;;;17.30;14.23;;;;;;;7.17;52.99;100752.22;4950867;28;20051;-69
2021/03/11 03:15:21;;;;;;;16.13;12.50;;;;;;;7.46;51.59;100740.19;4949308;28;20043;-67
2021/03/11 03:17:48;;;;;;;16.80;12.38;;;;;;;7.27;52.12;100751.06;4949437;28;20039;-66
2021/03/11 03:20:17;;;;;;;17.58;13.23;;;;;;;7.32;51.80;100741.44;4949185;28;20149;-67
2021/03/11 03:22:45;;;;;;;31.65;14.00;;;;;;;7.23;51.94;100754.66;4948669;28;20138;-66
2021/03/11 03:25:14;;;;;;;21.42;14.68;;;;;;;7.27;52.17;100756.25;4948843;28;20118;-67
2021/03/11 03:27:41;;;;;;;19.00;16.13;;;;;;;7.24;52.65;100758.09;4948576;28;20047;-67
2021/03/11 03:30:12;;;;;;;19.63;13.75;;;;;;;7.35;51.43;100756.91;4949059;28;20039;-68
2021/03/11 03:32:39;;;;;;;20.77;16.23;;;;;;;7.33;51.14;100756.09;4948930;28;20153;-69
2021/03/11 03:35:08;;;;;;;22.23;15.90;;;;;;;7.50;50.77;100757.34;4948789;28;20051;-68
2021/03/11 03:37:35;;;;;;;18.77;15.13;;;;;;;7.35;51.27;100754.31;4963736;28;20043;-69
2021/03/11 03:40:05;;;;;;;19.83;15.90;;;;;;;7.39;50.89;100762.00;4948972;28;20506;-69
2021/03/11 03:42:39;;;;;;;24.80;14.90;;;;;;;7.34;51.53;100752.59;4947203;28;20549;-68
2021/03/11 03:45:10;;;;;;;23.08;15.93;;;;;;;7.15;52.09;100751.44;4947374;29;20067;-68
2021/03/11 03:47:36;;;;;;;24.73;15.50;;;;;;;7.25;51.70;100752.88;4948147;28;20127;-69
2021/03/11 03:50:04;;;;;;;21.30;15.85;;;;;;;7.38;51.09;100760.31;4960560;28;20053;-69
2021/03/11 03:52:32;;;;;;;20.02;14.55;;;;;;;7.58;50.50;100756.22;4947908;28;20126;-72
2021/03/11 03:55:00;;;;;;;22.23;16.23;;;;;;;7.55;50.92;100751.13;4947962;28;20098;-73
2021/03/11 03:57:27;;;;;;;18.05;14.30;;;;;;;7.66;50.89;100753.41;4948851;28;20034;-71
2021/03/11 03:59:55;;;;;;;19.00;14.00;;;;;;;7.24;51.72;100753.75;4948513;28;20075;-72
2021/03/11 04:02:22;;;;;;;18.55;15.00;;;;;;;7.20;52.22;100743.53;4950063;28;20444;-72
2021/03/11 04:04:50;;;;;;;20.60;14.77;;;;;;;7.26;52.30;100749.38;4948449;28;20039;-72
2021/03/11 04:07:21;;;;;;;20.52;15.30;;;;;;;7.10;52.78;100745.53;4948478;28;20043;-72
2021/03/11 04:09:48;;;;;;;23.85;15.40;;;;;;;7.09;52.77;100738.66;4947781;28;20071;-72
2021/03/11 04:12:16;;;;;;;19.73;14.50;;;;;;;7.06;52.86;100742.16;4948219;28;20039;-72
2021/03/11 04:14:45;;;;;;;21.85;14.15;;;;;;;7.17;52.73;100744.44;4947971;28;20486;-72
2021/03/11 04:17:13;;;;;;;18.35;14.52;;;;;;;7.30;52.17;100743.22;4947426;28;20039;-72
2021/03/11 04:19:41;;;;;;;17.50;13.52;;;;;;;7.18;52.64;100740.97;4948147;28;20506;-72
2021/03/11 04:22:09;;;;;;;18.65;14.57;;;;;;;7.35;52.01;100732.72;4947750;28;20126;-71
2021/03/11 04:24:36;;;;;;;21.23;15.73;;;;;;;7.32;51.33;100728.47;4945194;28;20045;-71
2021/03/11 04:27:05;;;;;;;19.65;15.82;;;;;;;7.22;52.08;100723.59;4962777;28;20053;-71
2021/03/11 04:29:32;;;;;;;20.00;15.20;;;;;;;7.23;52.45;100731.31;4948213;28;20059;-69
2021/03/11 04:32:00;;;;;;;21.38;16.15;;;;;;;7.41;51.92;100726.50;4947655;28;20122;-68
2021/03/11 04:34:27;;;;;;;21.17;15.18;;;;;;;7.25;52.24;100720.91;4948938;29;20071;-68
2021/03/11 04:36:55;;;;;;;20.13;16.42;;;;;;;7.19;52.81;100715.88;4965526;28;20126;-68
2021/03/11 04:39:23;;;;;;;20.20;14.40;;;;;;;7.31;52.42;100725.91;4966366;28;20052;-68
2021/03/11 04:41:52;;;;;;;23.40;15.30;;;;;;;7.14;52.78;100720.34;4952969;29;20144;-68
2021/03/11 04:44:23;;;;;;;19.10;14.10;;;;;;;7.23;53.04;100728.72;4955002;28;20135;-68
2021/03/11 04:46:51;;;;;;;20.58;14.45;;;;;;;7.08;53.29;100726.53;4955424;28;20118;-68
2021/03/11 04:49:18;;;;;;;20.35;16.40;;;;;;;7.07;53.09;100735.22;4955287;28;20505;-68
2021/03/11 04:51:46;;;;;;;26.10;17.17;;;;;;;7.18;53.46;100740.97;4955647;28;20789;-68
2021/03/11 04:54:13;;;;;;;21.58;14.15;;;;;;;7.30;53.15;100738.03;4955433;28;20133;-68
2021/03/11 04:56:53;;;;;;;17.05;12.98;;;;;;;7.31;52.48;100738.88;4955150;28;20126;-72
2021/03/11 04:59:20;;;;;;;19.38;14.32;;;;;;;7.13;53.64;100729.88;4949224;28;20047;-71
2021/03/11 05:01:55;;;;;;;23.63;14.90;;;;;;;7.24;52.87;100745.97;4955167;28;20046;-71
2021/03/11 05:04:22;;;;;;;18.48;14.02;;;;;;;7.18;53.14;100740.97;4949966;29;20054;-71
2021/03/11 05:06:49;;;;;;;22.83;15.35;;;;;;;7.17;53.60;100744.44;4954724;28;20050;-71
2021/03/11 05:09:15;;;;;;;21.60;14.05;;;;;;;7.23;52.81;100743.41;4955278;28;20090;-71
2021/03/11 05:11:43;;;;;;;15.73;12.77;;;;;;;7.34;52.94;100742.22;4955037;28;20123;-71
2021/03/11 05:14:09;;;;;;;21.02;14.98;;;;;;;7.37;53.03;100745.63;4954779;28;20042;-71
2021/03/11 05:16:36;;;;;;;18.73;14.18;;;;;;;7.43;52.69;100735.09;4954437;28;20051;-71
2021/03/11 05:19:03;;;;;;;21.77;13.57;;;;;;;7.52;51.93;100734.81;4954837;28;20094;-71
2021/03/11 05:21:29;;;;;;;21.13;15.18;;;;;;;7.71;51.60;100740.28;4955297;28;20381;-71
2021/03/11 05:23:58;;;;;;;17.15;12.40;;;;;;;7.34;52.40;100747.41;4954352;28;20047;-71
2021/03/11 05:26:26;;;;;;;18.00;14.88;;;;;;;7.25;53.02;100746.84;4948319;28;20502;-71
2021/03/11 05:28:54;;;;;;;18.60;16.48;;;;;;;7.52;52.07;100752.97;4947129;28;20517;-71
2021/03/11 05:31:20;;;;;;;18.10;14.05;;;;;;;7.30;52.55;100755.34;4948260;28;20403;-72
2021/03/11 05:33:47;;;;;;;19.35;13.70;;;;;;;7.01;53.72;100753.53;4947349;28;20095;-69
2021/03/11 05:36:13;;;;;;;20.13;14.20;;;;;;;6.97;54.35;100749.31;4947777;28;20039;-70
2021/03/11 05:38:44;;;;;;;19.15;14.38;;;;;;;7.05;53.92;100744.78;4947850;28;20047;-69
2021/03/11 05:41:12;;;;;;;26.38;17.98;;;;;;;7.02;53.27;100761.28;4949856;28;20514;-69
2021/03/11 05:43:40;;;;;;;23.88;15.57;;;;;;;6.99;54.09;100768.28;4947800;28;20043;-70
2021/03/11 05:46:09;;;;;;;22.80;16.52;;;;;;;7.06;53.75;100757.72;4962479;28;20055;-70
2021/03/11 05:48:38;;;;;;;20.48;16.48;;;;;;;7.27;52.73;100765.78;4947591;28;20122;-69
2021/03/11 05:51:07;;;;;;;22.48;16.23;;;;;;;7.07;52.67;100768.94;4950626;28;20066;-69
2021/03/11 05:53:36;;;;;;;27.40;19.42;;;;;;;6.97;52.46;100773.50;4949191;28;20129;-69
2021/03/11 05:56:05;;;;;;;27.25;18.60;;;;;;;6.94;53.29;100777.94;4948094;28;20047;-69
2021/03/11 05:58:32;;;;;;;25.38;17.02;;;;;;;7.07;52.76;100780.16;4948538;28;20049;-69
2021/03/11 06:01:00;;;;;;;26.52;18.30;;;;;;;7.11;52.93;100780.91;4947804;28;20510;-69
2021/03/11 06:03:31;;;;;;;24.83;18.63;;;;;;;7.07;53.29;100785.31;4960421;28;20035;-69
2021/03/11 06:06:00;;;;;;;24.70;18.42;;;;;;;7.16;53.07;100779.06;4947550;28;20055;-68
2021/03/11 06:08:27;;;;;;;27.67;18.48;;;;;;;7.31;52.69;100783.81;4947302;28;20055;-69
2021/03/11 06:10:55;;;;;;;27.20;17.60;;;;;;;7.43;52.74;100782.63;4947921;28;20043;-68
2021/03/11 06:13:25;;;;;;;18.75;15.50;;;;;;;7.48;52.71;100791.13;4947701;28;20379;-69
2021/03/11 06:16:00;;;;;;;21.25;16.77;;;;;;;7.52;52.65;100791.91;4948285;28;20099;-72
2021/03/11 06:18:31;;;;;;;21.02;15.15;;;;;;;7.78;52.48;100791.97;4947356;28;20064;-71
2021/03/11 06:21:02;;;;;;;24.10;18.88;;;;;;;8.01;52.18;100791.28;4941413;28;20055;-70
2021/03/11 06:23:29;;;;;;;21.92;16.70;;;;;;;8.50;49.61;100794.09;4953040;29;20304;-70
2021/03/11 06:25:57;;;;;;;20.85;15.25;;;;;;;8.62;49.50;100804.09;4953857;28;20070;-69
2021/03/11 06:28:44;;;;;;;26.80;17.02;;;;;;;8.86;49.91;100792.03;4952404;28;20088;-68
2021/03/11 06:31:23;;;;;;;21.73;16.92;;;;;;;9.05;49.39;100798.28;4947788;28;20047;-73
2021/03/11 06:33:52;;;;;;;25.88;17.23;;;;;;;9.13;48.87;100801.47;4950947;29;20057;-77
2021/03/11 06:36:20;;;;;;;21.65;16.42;;;;;;;9.23;49.16;100802.00;4953186;28;20042;-77
2021/03/11 06:38:47;;;;;;;22.73;16.80;;;;;;;9.46;47.44;100798.56;4953755;28;20559;-71
2021/03/11 06:41:15;;;;;;;29.13;17.75;;;;;;;9.49;46.79;100795.00;4953128;28;20075;-74
2021/03/11 06:43:58;;;;;;;22.02;17.15;;;;;;;9.74;46.33;100798.38;4953038;28;20130;-71
2021/03/11 06:46:27;;;;;;;22.95;16.88;;;;;;;9.78;46.18;100793.91;4953571;28;20099;-72
2021/03/11 06:49:11;;;;;;;19.67;16.45;;;;;;;9.54;47.39;100798.28;4954599;28;20036;-77
2021/03/11 06:51:39;;;;;;;21.95;16.92;;;;;;;9.93;46.88;100794.19;4955950;28;20047;-75
2021/03/11 06:54:06;;;;;;;22.95;17.48;;;;;;;10.20;46.79;100796.63;4955170;28;20081;-73
2021/03/11 06:56:32;;;;;;;24.55;18.35;;;;;;;10.61;45.64;100800.19;4953688;28;20438;-70
2021/03/11 06:59:05;;;;;;;22.70;14.73;;;;;;;11.04;43.79;100801.00;4955322;28;20039;-74
2021/03/11 07:01:35;;;;;;;26.90;16.30;;;;;;;10.84;42.68;100803.59;4955647;28;20050;-69
2021/03/11 07:04:02;;;;;;;21.13;15.02;;;;;;;10.72;44.07;100804.97;4954176;28;20516;-73
2021/03/11 07:06:34;;;;;;;21.05;16.33;;;;;;;10.94;44.58;100803.13;4955668;28;20098;-75
2021/03/11 07:09:03;;;;;;;21.20;12.75;;;;;;;11.35;43.25;100805.72;4952166;29;20051;-74
2021/03/11 07:11:30;;;;;;;21.70;13.88;;;;;;;11.73;42.92;100805.75;4953412;28;20048;-79
2021/03/11 07:14:02;;;;;;;20.65;14.13;;;;;;;11.82;42.19;100815.78;4954149;28;20043;-75
2021/03/11 07:16:33;;;;;;;26.23;15.43;;;;;;;11.98;41.98;100822.00;4955664;28;20050;-76
2021/03/11 07:19:17;;;;;;;21.40;12.82;;;;;;;12.14;41.04;100818.66;4954613;28;20074;-74
2021/03/11 07:21:45;;;;;;;20.73;14.55;;;;;;;12.20;40.90;100826.25;4954195;28;20055;-68
2021/03/11 07:24:13;;;;;;;19.52;14.00;;;;;;;12.07;40.76;100829.41;4955241;28;20043;-67
2021/03/11 07:27:00;;;;;;;22.08;14.45;;;;;;;11.95;40.17;100826.53;4954363;28;20486;-67
2021/03/11 07:29:27;;;;;;;28.00;16.38;;;;;;;11.96;40.15;100828.22;4950278;29;20122;-68
2021/03/11 07:32:03;;;;;;;20.95;15.40;;;;;;;11.50;43.85;100828.53;4953857;28;20430;-68
2021/03/11 07:34:34;;;;;;;24.75;15.13;;;;;;;11.47;46.15;100826.06;4951747;28;20047;-68
2021/03/11 07:37:01;;;;;;;22.85;16.42;;;;;;;11.41;47.38;100830.72;4954790;28;20260;-69
2021/03/11 07:39:43;;;;;;;27.58;16.77;;;;;;;10.94;49.51;100839.66;4954819;28;20042;-67
2021/03/11 07:42:10;;;;;;;26.40;17.45;;;;;;;11.13;48.79;100837.13;4953536;28;20391;-69
2021/03/11 07:44:39;;;;;;;18.80;15.20;;;;;;;11.32;48.58;100845.00;4954473;28;20043;-68
2021/03/11 07:47:09;;;;;;;25.98;16.75;;;;;;;11.38;46.72;100836.91;4949943;28;20058;-72
2021/03/11 07:49:36;;;;;;;20.25;15.30;;;;;;;11.58;45.51;100830.81;4952261;28;20569;-70
2021/03/11 07:52:03;;;;;;;24.02;17.00;;;;;;;11.23;46.05;100829.72;4952158;28;20407;-71
2021/03/11 07:54:34;;;;;;;22.85;18.30;;;;;;;11.09;45.29;100835.56;4952570;28;20126;-71
2021/03/11 07:57:01;;;;;;;21.65;16.52;;;;;;;11.10;46.22;100841.63;4950048;28;20442;-71
2021/03/11 07:59:28;;;;;;;31.50;17.20;;;;;;;11.42;45.70;100840.22;4947619;28;20039;-69
2021/03/11 08:02:01;;;;;;;22.70;16.10;;;;;;;11.75;45.23;100830.03;4952857;28;20122;-71
2021/03/11 08:04:32;;;;;;;27.15;20.10;;;;;;;12.01;44.02;100840.16;4952204;28;20148;-71
2021/03/11 08:07:20;;;;;;;26.98;20.13;;;;;;;11.89;44.01;100840.75;4951788;29;20031;-71
2021/03/11 08:09:48;;;;;;;27.05;21.42;;;;;;;11.62;44.93;100834.13;4959351;28;20047;-78
2021/03/11 08:12:27;;;;;;;30.13;19.02;;;;;;;11.73;46.13;100829.25;4953805;28;20068;-78
2021/03/11 08:14:58;;;;;;;33.17;17.27;;;;;;;11.82;47.82;100841.06;4948963;28;20086;-77
2021/03/11 08:17:35;;;;;;;25.33;17.98;;;;;;;11.85;48.06;100852.25;4953122;29;20055;-77
2021/03/11 08:20:07;;;;;;;24.80;17.10;;;;;;;11.64;47.96;100854.03;4951194;28;20414;-68
2021/03/11 08:25:25;;;;;;;27.13;17.35;;;;;;;12.23;46.70;100862.69;4955211;28;20045;-71
2021/03/11 08:27:52;;;;;;;28.63;19.35;;;;;;;12.48;46.83;100868.44;4952088;28;20069;-72
2021/03/11 08:30:40;;;;;;;33.28;19.30;;;;;;;12.58;46.22;100863.63;4953302;28;20043;-71
2021/03/11 08:33:34;;;;;;;26.67;18.33;;;;;;;12.48;46.48;100865.84;4950317;28;20047;-68
2021/03/11 08:36:02;;;;;;;21.55;18.02;;;;;;;12.78;46.71;100867.84;4952646;28;20055;-72
2021/03/11 08:38:31;;;;;;;26.27;18.05;;;;;;;13.03;44.55;100867.50;4968814;28;20046;-70
2021/03/11 08:41:06;;;;;;;24.85;18.40;;;;;;;12.97;44.15;100867.81;4952954;28;20446;-71
2021/03/11 08:43:36;;;;;;;27.75;17.58;;;;;;;12.77;44.56;100858.31;4951848;28;20113;-69
2021/03/11 08:46:03;;;;;;;31.92;20.08;;;;;;;13.03;43.98;100865.72;4953464;28;20055;-69
2021/03/11 08:48:43;;;;;;;37.22;21.63;;;;;;;12.67;45.17;100859.69;4953779;28;20043;-72
2021/03/11 08:51:12;;;;;;;31.83;16.85;;;;;;;12.88;44.01;100856.03;4952827;28;20414;-72
2021/03/11 08:53:38;;;;;;;26.02;17.25;;;;;;;12.96;44.31;100859.13;4951235;28;20498;-68
2021/03/11 08:56:19;;;;;;;26.13;19.05;;;;;;;12.61;45.59;100857.38;4950344;28;20451;-69
2021/03/11 08:58:59;;;;;;;28.23;18.10;;;;;;;12.39;45.64;100860.19;4948087;28;20131;-71
2021/03/11 09:01:28;;;;;;;22.15;16.55;;;;;;;12.51;44.89;100860.44;4952216;28;20126;-70
2021/03/11 09:03:56;;;;;;;27.65;17.10;;;;;;;12.52;44.30;100864.78;4952462;28;20054;-71
2021/03/11 09:07:01;;;;;;;22.80;17.45;;;;;;;12.25;44.51;100853.00;4952431;28;20039;-70
2021/03/11 09:09:42;;;;;;;25.63;16.42;;;;;;;11.97;45.27;100856.03;4952293;29;20049;-69
2021/03/11 09:12:16;;;;;;;26.55;16.13;;;;;;;11.85;43.86;100857.47;4950966;28;20058;-69
2021/03/11 09:14:50;;;;;;;23.00;16.67;;;;;;;11.88;44.63;100859.06;4951370;28;20044;-75
2021/03/11 09:17:21;;;;;;;21.10;16.60;;;;;;;11.88;45.52;100856.47;4952079;28;20518;-71
2021/03/11 09:19:50;;;;;;;24.02;16.80;;;;;;;12.38;44.34;100861.97;4952249;28;20047;-69
2021/03/11 09:22:22;;;;;;;25.65;16.70;;;;;;;12.70;43.97;100856.94;4951270;28;20573;-73
2021/03/11 09:24:55;;;;;;;29.67;16.15;;;;;;;12.30;45.20;100861.47;4950054;28;20047;-73
2021/03/11 09:27:21;;;;;;;28.95;18.02;;;;;;;12.12;46.71;100855.34;4951280;28;20052;-71
2021/03/11 09:29:48;;;;;;;23.17;16.15;;;;;;;12.44;46.45;100861.66;4951421;28;20049;-71
2021/03/11 09:32:16;;;;;;;26.15;17.30;;;;;;;12.60;44.76;100856.53;4947788;28;20050;-68
2021/03/11 09:34:58;;;;;;;22.13;15.63;;;;;;;12.50;44.54;100856.13;4951535;28;20051;-67
2021/03/11 09:37:44;;;;;;;26.40;16.55;;;;;;;12.36;43.63;100865.56;4947689;28;20379;-67
2021/03/11 09:40:13;;;;;;;17.73;14.20;;;;;;;12.37;44.21;100865.50;4950394;29;20132;-66
2021/03/11 09:42:58;;;;;;;23.63;13.82;;;;;;;12.39;45.92;100868.88;4950950;28;20071;-67
2021/03/11 09:45:31;;;;;;;21.75;15.73;;;;;;;12.69;45.73;100870.94;4951621;29;20047;-68
2021/03/11 09:48:22;;;;;;;23.33;15.85;;;;;;;12.74;46.50;100868.97;4951423;28;20043;-67
2021/03/11 09:50:56;;;;;;;24.92;15.30;;;;;;;12.72;46.77;100873.41;4950253;29;20126;-67
2021/03/11 09:53:24;;;;;;;23.83;15.10;;;;;;;12.63;47.15;100871.25;4952326;28;20371;-67
2021/03/11 09:55:55;;;;;;;28.92;17.80;;;;;;;12.58;46.63;100876.69;4953728;28;20039;-67
2021/03/11 09:58:23;;;;;;;20.60;14.70;;;;;;;12.56;45.19;100871.53;4952239;28;20557;-67
2021/03/11 10:00:50;;;;;;;29.35;15.60;;;;;;;12.48;45.20;100865.84;4951733;28;20047;-68
2021/03/11 10:03:23;;;;;;;28.48;14.95;;;;;;;12.67;45.73;100857.09;4952915;28;20126;-68
2021/03/11 10:06:05;;;;;;;27.70;17.38;;;;;;;12.81;46.03;100865.94;4951825;28;20066;-68
2021/03/11 10:08:39;;;;;;;24.88;16.35;;;;;;;12.83;46.55;100861.47;4952193;29;20051;-68
2021/03/11 10:11:09;;;;;;;27.02;17.13;;;;;;;13.05;44.60;100869.13;4951544;28;20167;-67
2021/03/11 10:13:37;;;;;;;31.13;17.98;;;;;;;12.82;44.91;100864.19;4950112;29;20043;-67
2021/03/11 10:16:06;;;;;;;31.83;17.73;;;;;;;13.02;45.10;100858.81;4951864;28;20039;-67
2021/03/11 10:18:34;;;;;;;44.88;17.85;;;;;;;13.18;44.45;100858.03;4952196;28;20520;-67
2021/03/11 10:21:03;;;;;;;37.20;18.58;;;;;;;13.21;45.48;100852.63;4951601;28;20050;-67
2021/03/11 10:23:30;;;;;;;30.65;18.00;;;;;;;13.28;45.43;100857.50;4955154;28;20569;-67
2021/03/11 10:26:15;;;;;;;36.05;18.15;;;;;;;13.16;45.71;100844.19;4955962;28;20074;-67
2021/03/11 10:28:43;;;;;;;38.25;18.38;;;;;;;13.17;45.58;100838.88;4954913;28;20566;-67
2021/03/11 10:31:11;;;;;;;40.13;19.33;;;;;;;13.32;46.27;100837.25;4955375;28;20046;-66
2021/03/11 10:33:39;;;;;;;36.22;17.70;;;;;;;13.42;44.15;100837.59;4955444;28;20051;-67
2021/03/11 10:36:12;;;;;;;24.70;16.55;;;;;;;13.09;44.68;100841.84;4956196;28;20506;-67
2021/03/11 10:38:39;;;;;;;31.05;16.58;;;;;;;13.19;45.01;100854.47;4955003;28;20078;-67
2021/03/11 10:41:09;;;;;;;30.27;17.63;;;;;;;13.05;45.44;100845.56;4955540;28;20050;-67
2021/03/11 10:43:36;;;;;;;25.88;16.10;;;;;;;13.36;45.29;100847.47;4955520;28;20531;-67
2021/03/11 10:46:03;;;;;;;26.27;16.63;;;;;;;13.41;45.43;100852.47;4953616;29;20039;-70
2021/03/11 10:48:44;;;;;;;24.85;15.98;;;;;;;13.49;44.18;100847.69;4952610;28;20047;-73
2021/03/11 10:51:17;;;;;;;27.13;14.77;;;;;;;13.45;44.59;100845.31;4954225;28;20453;-72
2021/03/11 10:53:43;;;;;;;30.00;16.42;;;;;;;13.40;43.92;100840.31;4955765;28;20043;-71
2021/03/11 10:56:10;;;;;;;22.48;14.38;;;;;;;13.39;43.10;100843.88;4956610;28;20039;-71
2021/03/11 10:58:38;;;;;;;27.20;13.38;;;;;;;13.44;43.51;100844.47;4953129;28;20069;-73
2021/03/11 11:01:13;;;;;;;21.80;14.25;;;;;;;13.46;42.85;100842.59;4954903;28;20487;-75
2021/03/11 11:03:41;;;;;;;19.77;13.23;;;;;;;13.68;42.74;100833.63;4954844;29;20074;-71
2021/03/11 11:06:09;;;;;;;18.40;13.13;;;;;;;13.90;42.08;100836.75;4953141;28;20141;-73
2021/03/11 11:08:39;;;;;;;22.20;13.75;;;;;;;13.88;42.42;100839.47;4954161;28;20043;-73
2021/03/11 11:11:06;;;;;;;18.63;13.10;;;;;;;13.83;42.59;100835.41;4954060;28;20058;-70
2021/03/11 11:13:32;;;;;;;18.05;12.52;;;;;;;13.85;43.33;100830.94;4947893;28;20039;-71
2021/03/11 11:15:58;;;;;;;18.17;12.95;;;;;;;13.94;43.35;100838.28;4953673;28;20043;-69
2021/03/11 11:18:25;;;;;;;20.00;13.05;;;;;;;14.02;43.60;100828.25;4947423;28;20051;-70
2021/03/11 11:20:52;;;;;;;27.17;14.93;;;;;;;13.74;44.13;100828.03;4950434;28;20158;-71
2021/03/11 11:23:18;;;;;;;20.08;13.10;;;;;;;13.86;44.36;100824.78;4948837;28;20494;-68
2021/03/11 11:25:45;;;;;;;19.55;12.65;;;;;;;13.89;43.72;100819.34;4956234;28;20071;-70
2021/03/11 11:28:11;;;;;;;19.02;12.80;;;;;;;13.75;44.28;100806.19;4950054;28;20114;-71
2021/03/11 11:30:38;;;;;;;17.88;12.98;;;;;;;13.98;44.24;100816.22;4949127;28;20050;-68